sensor_id;sensor_type;location;lat;lon;timestamp;P1;P2;P0
62778;PMS7003;48821;48.796;2.396;2023-03-13T00:00:04;11.50;11.50;7.50
62778;PMS7003;48821;48.796;2.396;2023-03-13T00:01:17;17.00;12.00;8.00
62778;PMS7003;48821;48.796;2.396;2023-03-13T00:02:40;14.00;14.00;10.00
62778;PMS7003;48821;48.796;2.396;2023-03-13T00:03:51;16.67;13.00;7.00
62778;PMS7003;48821;48.796;2.396;2023-03-13T00:05:06;16.80;16.80;9.80
62778;PMS7003;48821;48.796;2.396;2023-03-13T00:06:17;16.00;14.50;10.50
62778;PMS7003;48821;48.796;2.396;2023-03-13T00:07:29;17.80;15.20;10.20
62778;PMS7003;48821;48.796;2.396;2023-03-13T00:08:40;11.00;10.00;7.50
62778;PMS7003;48821;48.796;2.396;2023-03-13T00:09:51;14.00;12.50;9.00
62778;PMS7003;48821;48.796;2.396;2023-03-13T00:11:03;11.00;10.00;7.50
62778;PMS7003;48821;48.796;2.396;2023-03-13T00:12:16;7.25;5.00;4.00
62778;PMS7003;48821;48.796;2.396;2023-03-13T00:13:29;6.50;6.50;4.67
62778;PMS7003;48821;48.796;2.396;2023-03-13T00:14:43;6.67;6.50;4.33
62778;PMS7003;48821;48.796;2.396;2023-03-13T00:16:03;7.67;6.00;4.00
62778;PMS7003;48821;48.796;2.396;2023-03-13T00:17:15;5.00;4.00;3.33
62778;PMS7003;48821;48.796;2.396;2023-03-13T00:18:26;2.67;1.00;0.00
62778;PMS7003;48821;48.796;2.396;2023-03-13T00:19:39;6.17;4.00;3.00
62778;PMS7003;48821;48.796;2.396;2023-03-13T00:20:56;4.00;3.67;3.00
62778;PMS7003;48821;48.796;2.396;2023-03-13T00:22:10;3.83;3.17;2.33
62778;PMS7003;48821;48.796;2.396;2023-03-13T00:23:23;2.17;2.17;2.00
62778;PMS7003;48821;48.796;2.396;2023-03-13T00:24:36;4.00;2.33;2.00
62778;PMS7003;48821;48.796;2.396;2023-03-13T00:25:56;2.67;2.33;2.00
62778;PMS7003;48821;48.796;2.396;2023-03-13T00:27:13;2.83;2.67;1.67
62778;PMS7003;48821;48.796;2.396;2023-03-13T00:28:27;3.67;1.83;1.67
62778;PMS7003;48821;48.796;2.396;2023-03-13T00:29:41;4.00;2.17;2.00
62778;PMS7003;48821;48.796;2.396;2023-03-13T00:31:14;3.33;2.00;2.00
62778;PMS7003;48821;48.796;2.396;2023-03-13T00:32:32;3.00;2.00;2.00
62778;PMS7003;48821;48.796;2.396;2023-03-13T00:33:44;3.00;3.00;2.00
62778;PMS7003;48821;48.796;2.396;2023-03-13T00:34:59;3.00;3.00;2.33
62778;PMS7003;48821;48.796;2.396;2023-03-13T00:36:13;2.00;2.00;1.33
62778;PMS7003;48821;48.796;2.396;2023-03-13T00:37:27;3.00;3.00;2.17
62778;PMS7003;48821;48.796;2.396;2023-03-13T00:38:40;2.00;2.00;1.67
62778;PMS7003;48821;48.796;2.396;2023-03-13T00:39:53;2.67;2.00;2.00
62778;PMS7003;48821;48.796;2.396;2023-03-13T00:41:08;2.00;2.00;1.83
62778;PMS7003;48821;48.796;2.396;2023-03-13T00:42:26;3.00;3.00;2.00
62778;PMS7003;48821;48.796;2.396;2023-03-13T00:43:39;2.17;2.00;1.33
62778;PMS7003;48821;48.796;2.396;2023-03-13T00:44:54;1.33;1.33;1.00
62778;PMS7003;48821;48.796;2.396;2023-03-13T00:46:08;3.50;2.00;1.83
62778;PMS7003;48821;48.796;2.396;2023-03-13T00:47:22;2.50;2.00;1.50
62778;PMS7003;48821;48.796;2.396;2023-03-13T00:48:36;2.17;2.17;2.00
62778;PMS7003;48821;48.796;2.396;2023-03-13T00:49:50;2.33;2.00;2.00
62778;PMS7003;48821;48.796;2.396;2023-03-13T00:51:03;1.67;1.67;1.67
62778;PMS7003;48821;48.796;2.396;2023-03-13T00:52:17;3.17;3.00;2.33
62778;PMS7003;48821;48.796;2.396;2023-03-13T00:53:31;2.67;2.00;1.17
62778;PMS7003;48821;48.796;2.396;2023-03-13T00:54:41;2.00;2.00;1.67
62778;PMS7003;48821;48.796;2.396;2023-03-13T00:56:03;2.00;2.00;1.00
62778;PMS7003;48821;48.796;2.396;2023-03-13T00:57:21;2.00;2.00;1.33
62778;PMS7003;48821;48.796;2.396;2023-03-13T00:58:35;3.00;2.00;1.00
62778;PMS7003;48821;48.796;2.396;2023-03-13T00:59:50;2.33;2.33;2.00
62778;PMS7003;48821;48.796;2.396;2023-03-13T01:01:11;2.50;2.50;2.00
62778;PMS7003;48821;48.796;2.396;2023-03-13T01:02:27;2.67;2.67;2.33
62778;PMS7003;48821;48.796;2.396;2023-03-13T01:03:38;2.00;2.00;2.00
62778;PMS7003;48821;48.796;2.396;2023-03-13T01:04:52;3.33;2.50;1.83
62778;PMS7003;48821;48.796;2.396;2023-03-13T01:06:07;2.00;2.00;1.83
62778;PMS7003;48821;48.796;2.396;2023-03-13T01:07:22;2.00;2.00;1.67
62778;PMS7003;48821;48.796;2.396;2023-03-13T01:08:35;2.67;1.67;1.00
62778;PMS7003;48821;48.796;2.396;2023-03-13T01:09:48;2.83;2.83;2.00
62778;PMS7003;48821;48.796;2.396;2023-03-13T01:11:06;3.00;3.00;2.17
62778;PMS7003;48821;48.796;2.396;2023-03-13T01:12:18;3.00;2.67;1.67
62778;PMS7003;48821;48.796;2.396;2023-03-13T01:13:30;1.00;1.00;1.00
62778;PMS7003;48821;48.796;2.396;2023-03-13T01:14:44;3.33;2.17;2.00
62778;PMS7003;48821;48.796;2.396;2023-03-13T01:16:05;2.00;1.67;1.33
62778;PMS7003;48821;48.796;2.396;2023-03-13T01:17:19;5.17;3.17;2.17
62778;PMS7003;48821;48.796;2.396;2023-03-13T01:18:30;4.00;3.33;2.00
62778;PMS7003;48821;48.796;2.396;2023-03-13T01:19:43;3.40;2.80;2.00
62778;PMS7003;48821;48.796;2.396;2023-03-13T01:20:56;2.00;2.00;1.83
62778;PMS7003;48821;48.796;2.396;2023-03-13T01:22:09;2.67;2.67;1.83
62778;PMS7003;48821;48.796;2.396;2023-03-13T01:23:24;2.67;2.50;1.50
62778;PMS7003;48821;48.796;2.396;2023-03-13T01:24:38;4.00;2.33;2.00
62778;PMS7003;48821;48.796;2.396;2023-03-13T01:25:51;2.50;2.50;2.00
62778;PMS7003;48821;48.796;2.396;2023-03-13T01:27:06;3.50;2.17;2.00
62778;PMS7003;48821;48.796;2.396;2023-03-13T01:28:16;2.67;2.00;1.00
62778;PMS7003;48821;48.796;2.396;2023-03-13T01:29:27;3.00;3.00;2.00
62778;PMS7003;48821;48.796;2.396;2023-03-13T01:30:42;3.00;3.00;2.67
62778;PMS7003;48821;48.796;2.396;2023-03-13T01:31:55;4.50;3.67;2.00
62778;PMS7003;48821;48.796;2.396;2023-03-13T01:33:05;2.67;2.67;2.00
62778;PMS7003;48821;48.796;2.396;2023-03-13T01:34:16;0.00;0.00;0.00
62778;PMS7003;48821;48.796;2.396;2023-03-13T01:35:30;3.00;2.17;1.83
62778;PMS7003;48821;48.796;2.396;2023-03-13T01:36:43;1.50;1.50;1.00
62778;PMS7003;48821;48.796;2.396;2023-03-13T01:37:58;3.67;3.67;2.67
62778;PMS7003;48821;48.796;2.396;2023-03-13T01:39:11;3.00;3.00;2.00
62778;PMS7003;48821;48.796;2.396;2023-03-13T01:40:24;3.00;2.17;2.00
62778;PMS7003;48821;48.796;2.396;2023-03-13T01:41:38;3.67;3.50;3.00
62778;PMS7003;48821;48.796;2.396;2023-03-13T01:42:51;3.00;2.83;1.00
62778;PMS7003;48821;48.796;2.396;2023-03-13T01:44:19;3.50;3.50;2.33
62778;PMS7003;48821;48.796;2.396;2023-03-13T01:47:31;4.00;3.17;3.00
62778;PMS7003;48821;48.796;2.396;2023-03-13T01:50:23;4.00;3.17;3.00
62778;PMS7003;48821;48.796;2.396;2023-03-13T01:51:37;3.67;2.00;2.00
62778;PMS7003;48821;48.796;2.396;2023-03-13T01:52:50;5.00;3.00;3.00
62778;PMS7003;48821;48.796;2.396;2023-03-13T01:54:39;3.00;3.00;2.17
62778;PMS7003;48821;48.796;2.396;2023-03-13T01:55:47;3.33;2.33;2.17
62778;PMS7003;48821;48.796;2.396;2023-03-13T01:58:17;5.50;3.00;2.33
62778;PMS7003;48821;48.796;2.396;2023-03-13T01:59:32;3.33;2.00;1.00
62778;PMS7003;48821;48.796;2.396;2023-03-13T02:00:49;2.33;2.33;2.00
62778;PMS7003;48821;48.796;2.396;2023-03-13T02:02:00;2.00;2.00;2.00
62778;PMS7003;48821;48.796;2.396;2023-03-13T02:03:16;4.50;3.17;2.33
62778;PMS7003;48821;48.796;2.396;2023-03-13T02:04:35;3.50;3.50;3.00
62778;PMS7003;48821;48.796;2.396;2023-03-13T02:05:53;3.00;2.67;2.50
62778;PMS7003;48821;48.796;2.396;2023-03-13T02:07:09;5.00;2.50;2.17
62778;PMS7003;48821;48.796;2.396;2023-03-13T02:09:10;4.67;3.33;3.00
62778;PMS7003;48821;48.796;2.396;2023-03-13T02:10:18;3.00;2.00;2.00
62778;PMS7003;48821;48.796;2.396;2023-03-13T02:11:52;4.33;3.00;2.00
62778;PMS7003;48821;48.796;2.396;2023-03-13T02:13:09;4.00;2.00;1.67
62778;PMS7003;48821;48.796;2.396;2023-03-13T02:14:27;4.50;4.33;3.17
62778;PMS7003;48821;48.796;2.396;2023-03-13T02:15:44;4.50;3.00;2.00
62778;PMS7003;48821;48.796;2.396;2023-03-13T02:16:58;5.17;2.17;2.00
62778;PMS7003;48821;48.796;2.396;2023-03-13T02:18:10;4.67;2.00;2.00
62778;PMS7003;48821;48.796;2.396;2023-03-13T02:20:44;3.00;3.00;2.17
62778;PMS7003;48821;48.796;2.396;2023-03-13T02:22:12;3.50;2.67;2.00
62778;PMS7003;48821;48.796;2.396;2023-03-13T02:23:38;4.00;3.17;3.00
62778;PMS7003;48821;48.796;2.396;2023-03-13T02:26:25;5.50;3.50;2.00
62778;PMS7003;48821;48.796;2.396;2023-03-13T02:27:36;4.00;4.00;3.00
62778;PMS7003;48821;48.796;2.396;2023-03-13T02:28:47;7.67;3.00;2.33
62778;PMS7003;48821;48.796;2.396;2023-03-13T02:29:58;5.33;3.33;3.00
62778;PMS7003;48821;48.796;2.396;2023-03-13T02:31:11;2.67;2.67;2.00
62778;PMS7003;48821;48.796;2.396;2023-03-13T02:32:25;4.17;3.00;2.83
62778;PMS7003;48821;48.796;2.396;2023-03-13T02:33:41;3.33;3.00;2.50
62778;PMS7003;48821;48.796;2.396;2023-03-13T02:34:57;6.17;4.00;3.83
62778;PMS7003;48821;48.796;2.396;2023-03-13T02:36:13;5.33;4.00;3.00
62778;PMS7003;48821;48.796;2.396;2023-03-13T02:37:28;5.50;3.00;2.33
62778;PMS7003;48821;48.796;2.396;2023-03-13T02:38:48;3.50;3.17;2.00
62778;PMS7003;48821;48.796;2.396;2023-03-13T02:40:10;4.00;4.00;2.83
62778;PMS7003;48821;48.796;2.396;2023-03-13T02:41:27;2.83;2.83;2.00
62778;PMS7003;48821;48.796;2.396;2023-03-13T02:42:39;6.33;5.00;3.00
62778;PMS7003;48821;48.796;2.396;2023-03-13T02:43:55;2.50;2.50;2.00
62778;PMS7003;48821;48.796;2.396;2023-03-13T02:45:08;6.67;3.83;2.67
62778;PMS7003;48821;48.796;2.396;2023-03-13T02:46:20;4.00;3.00;3.00
62778;PMS7003;48821;48.796;2.396;2023-03-13T02:47:33;5.17;3.67;2.67
62778;PMS7003;48821;48.796;2.396;2023-03-13T02:48:45;8.00;4.33;3.33
62778;PMS7003;48821;48.796;2.396;2023-03-13T02:50:00;7.33;3.67;2.83
62778;PMS7003;48821;48.796;2.396;2023-03-13T02:52:35;5.17;2.50;2.00
62778;PMS7003;48821;48.796;2.396;2023-03-13T02:54:25;7.67;4.67;3.00
62778;PMS7003;48821;48.796;2.396;2023-03-13T02:55:45;3.50;2.83;2.00
62778;PMS7003;48821;48.796;2.396;2023-03-13T02:56:59;4.00;2.00;2.00
62778;PMS7003;48821;48.796;2.396;2023-03-13T02:58:12;5.00;4.00;3.00
62778;PMS7003;48821;48.796;2.396;2023-03-13T02:59:23;3.00;3.00;2.67
62778;PMS7003;48821;48.796;2.396;2023-03-13T03:00:37;2.33;2.33;2.17
62778;PMS7003;48821;48.796;2.396;2023-03-13T03:01:47;7.67;4.00;3.00
62778;PMS7003;48821;48.796;2.396;2023-03-13T03:03:01;4.00;4.00;3.00
62778;PMS7003;48821;48.796;2.396;2023-03-13T03:04:12;4.00;4.00;3.00
62778;PMS7003;48821;48.796;2.396;2023-03-13T03:05:23;4.00;4.00;2.00
62778;PMS7003;48821;48.796;2.396;2023-03-13T03:06:37;4.50;4.00;3.00
62778;PMS7003;48821;48.796;2.396;2023-03-13T03:07:48;6.00;4.00;3.00
62778;PMS7003;48821;48.796;2.396;2023-03-13T03:08:59;5.00;4.00;3.00
62778;PMS7003;48821;48.796;2.396;2023-03-13T03:10:10;5.00;4.00;3.00
62778;PMS7003;48821;48.796;2.396;2023-03-13T03:11:21;5.00;3.00;2.33
62778;PMS7003;48821;48.796;2.396;2023-03-13T03:12:31;5.00;5.00;4.00
62778;PMS7003;48821;48.796;2.396;2023-03-13T03:13:43;7.00;4.50;3.00
62778;PMS7003;48821;48.796;2.396;2023-03-13T03:14:56;3.50;2.17;2.00
62778;PMS7003;48821;48.796;2.396;2023-03-13T03:16:11;4.67;3.67;2.17
62778;PMS7003;48821;48.796;2.396;2023-03-13T03:17:27;5.33;4.00;3.00
62778;PMS7003;48821;48.796;2.396;2023-03-13T03:18:37;4.00;4.00;4.00
62778;PMS7003;48821;48.796;2.396;2023-03-13T03:19:48;8.00;5.33;3.33
62778;PMS7003;48821;48.796;2.396;2023-03-13T03:20:59;6.00;4.33;3.00
62778;PMS7003;48821;48.796;2.396;2023-03-13T03:22:10;3.33;3.33;2.33
62778;PMS7003;48821;48.796;2.396;2023-03-13T03:23:20;6.33;3.67;3.00
62778;PMS7003;48821;48.796;2.396;2023-03-13T03:24:31;3.00;3.00;2.67
62778;PMS7003;48821;48.796;2.396;2023-03-13T03:25:44;4.67;3.67;3.00
62778;PMS7003;48821;48.796;2.396;2023-03-13T03:26:55;2.00;2.00;2.00
62778;PMS7003;48821;48.796;2.396;2023-03-13T03:28:06;6.00;4.33;2.33
62778;PMS7003;48821;48.796;2.396;2023-03-13T03:29:18;6.50;4.75;3.00
62778;PMS7003;48821;48.796;2.396;2023-03-13T03:30:31;6.67;4.83;3.83
62778;PMS7003;48821;48.796;2.396;2023-03-13T03:31:41;4.00;3.33;2.67
62778;PMS7003;48821;48.796;2.396;2023-03-13T03:32:52;3.00;3.00;2.67
62778;PMS7003;48821;48.796;2.396;2023-03-13T03:34:06;4.33;4.33;3.67
62778;PMS7003;48821;48.796;2.396;2023-03-13T03:35:19;5.50;5.50;4.83
62778;PMS7003;48821;48.796;2.396;2023-03-13T03:36:29;6.00;5.00;3.00
62778;PMS7003;48821;48.796;2.396;2023-03-13T03:37:40;5.67;5.00;3.00
62778;PMS7003;48821;48.796;2.396;2023-03-13T03:38:51;4.67;4.00;3.67
62778;PMS7003;48821;48.796;2.396;2023-03-13T03:40:04;3.80;2.00;2.00
62778;PMS7003;48821;48.796;2.396;2023-03-13T03:41:15;9.33;5.00;4.00
62778;PMS7003;48821;48.796;2.396;2023-03-13T03:42:26;5.67;5.67;3.67
62778;PMS7003;48821;48.796;2.396;2023-03-13T03:43:37;5.00;4.00;3.00
62778;PMS7003;48821;48.796;2.396;2023-03-13T03:44:48;6.00;3.00;2.00
62778;PMS7003;48821;48.796;2.396;2023-03-13T03:45:59;3.00;3.00;2.00
62778;PMS7003;48821;48.796;2.396;2023-03-13T03:47:10;7.00;4.67;3.67
62778;PMS7003;48821;48.796;2.396;2023-03-13T03:48:22;4.75;3.50;2.25
62778;PMS7003;48821;48.796;2.396;2023-03-13T03:49:32;9.00;4.67;3.67
62778;PMS7003;48821;48.796;2.396;2023-03-13T03:50:43;4.00;3.33;3.00
62778;PMS7003;48821;48.796;2.396;2023-03-13T03:51:54;5.00;4.00;3.00
62778;PMS7003;48821;48.796;2.396;2023-03-13T03:53:05;3.00;3.00;2.67
62778;PMS7003;48821;48.796;2.396;2023-03-13T03:54:16;7.00;4.33;3.00
62778;PMS7003;48821;48.796;2.396;2023-03-13T03:55:26;6.00;4.00;3.00
62778;PMS7003;48821;48.796;2.396;2023-03-13T03:56:37;5.00;3.00;3.00
62778;PMS7003;48821;48.796;2.396;2023-03-13T03:57:51;4.00;4.00;3.67
62778;PMS7003;48821;48.796;2.396;2023-03-13T03:59:04;3.83;3.83;2.67
62778;PMS7003;48821;48.796;2.396;2023-03-13T04:00:17;3.17;3.17;2.50
62778;PMS7003;48821;48.796;2.396;2023-03-13T04:01:33;6.00;4.50;3.83
62778;PMS7003;48821;48.796;2.396;2023-03-13T04:02:46;5.83;4.00;4.00
62778;PMS7003;48821;48.796;2.396;2023-03-13T04:03:57;7.00;6.00;4.00
62778;PMS7003;48821;48.796;2.396;2023-03-13T04:05:08;8.00;6.00;4.33
62778;PMS7003;48821;48.796;2.396;2023-03-13T04:06:20;5.75;5.50;4.25
62778;PMS7003;48821;48.796;2.396;2023-03-13T04:07:30;9.00;7.67;6.00
62778;PMS7003;48821;48.796;2.396;2023-03-13T04:08:41;4.67;4.67;4.00
62778;PMS7003;48821;48.796;2.396;2023-03-13T04:09:52;6.00;4.00;2.00
62778;PMS7003;48821;48.796;2.396;2023-03-13T04:11:03;8.33;7.67;5.33
62778;PMS7003;48821;48.796;2.396;2023-03-13T04:12:14;10.00;6.00;5.00
62778;PMS7003;48821;48.796;2.396;2023-03-13T04:13:25;10.00;6.00;5.00
62778;PMS7003;48821;48.796;2.396;2023-03-13T04:14:36;9.00;6.67;4.67
62778;PMS7003;48821;48.796;2.396;2023-03-13T04:15:47;6.50;4.25;3.00
62778;PMS7003;48821;48.796;2.396;2023-03-13T04:16:58;4.67;4.00;3.33
62778;PMS7003;48821;48.796;2.396;2023-03-13T04:18:09;6.00;4.00;2.00
62778;PMS7003;48821;48.796;2.396;2023-03-13T04:19:19;4.00;4.00;3.00
62778;PMS7003;48821;48.796;2.396;2023-03-13T04:20:31;5.67;4.33;4.00
62778;PMS7003;48821;48.796;2.396;2023-03-13T04:21:41;8.00;4.33;4.00
62778;PMS7003;48821;48.796;2.396;2023-03-13T04:22:52;6.33;4.00;3.00
62778;PMS7003;48821;48.796;2.396;2023-03-13T04:24:04;5.50;5.25;4.00
62778;PMS7003;48821;48.796;2.396;2023-03-13T04:25:15;4.33;4.33;3.33
62778;PMS7003;48821;48.796;2.396;2023-03-13T04:26:26;6.33;3.00;2.00
62778;PMS7003;48821;48.796;2.396;2023-03-13T04:27:37;4.67;4.67;4.00
62778;PMS7003;48821;48.796;2.396;2023-03-13T04:28:47;3.67;3.67;3.00
62778;PMS7003;48821;48.796;2.396;2023-03-13T04:29:58;4.67;4.00;3.00
62778;PMS7003;48821;48.796;2.396;2023-03-13T04:31:11;6.00;4.40;4.00
62778;PMS7003;48821;48.796;2.396;2023-03-13T04:32:21;7.00;5.00;4.00
62778;PMS7003;48821;48.796;2.396;2023-03-13T04:33:32;4.33;4.33;3.00
62778;PMS7003;48821;48.796;2.396;2023-03-13T04:34:45;7.40;4.80;4.00
62778;PMS7003;48821;48.796;2.396;2023-03-13T04:35:58;5.50;5.50;3.83
62778;PMS7003;48821;48.796;2.396;2023-03-13T04:37:09;5.00;5.00;4.00
62778;PMS7003;48821;48.796;2.396;2023-03-13T04:38:19;6.33;4.33;3.00
62778;PMS7003;48821;48.796;2.396;2023-03-13T04:39:30;5.67;4.00;3.00
62778;PMS7003;48821;48.796;2.396;2023-03-13T04:40:41;5.67;4.33;3.00
62778;PMS7003;48821;48.796;2.396;2023-03-13T04:41:54;7.00;5.00;4.00
62778;PMS7003;48821;48.796;2.396;2023-03-13T04:43:08;6.00;6.00;4.00
62778;PMS7003;48821;48.796;2.396;2023-03-13T04:44:18;4.00;4.00;3.00
62778;PMS7003;48821;48.796;2.396;2023-03-13T04:45:31;4.00;4.00;3.00
62778;PMS7003;48821;48.796;2.396;2023-03-13T04:46:44;6.00;5.83;4.67
62778;PMS7003;48821;48.796;2.396;2023-03-13T04:47:57;4.67;4.00;3.33
62778;PMS7003;48821;48.796;2.396;2023-03-13T04:49:11;5.67;4.00;2.67
62778;PMS7003;48821;48.796;2.396;2023-03-13T04:50:21;6.67;6.67;4.67
62778;PMS7003;48821;48.796;2.396;2023-03-13T04:51:32;6.00;5.00;4.00
62778;PMS7003;48821;48.796;2.396;2023-03-13T04:52:43;4.00;3.00;3.00
62778;PMS7003;48821;48.796;2.396;2023-03-13T04:53:54;4.00;4.00;3.00
62778;PMS7003;48821;48.796;2.396;2023-03-13T04:55:06;7.75;7.75;5.00
62778;PMS7003;48821;48.796;2.396;2023-03-13T04:56:23;4.00;4.00;3.00
62778;PMS7003;48821;48.796;2.396;2023-03-13T04:57:34;6.00;5.00;4.00
62778;PMS7003;48821;48.796;2.396;2023-03-13T04:58:45;3.67;3.67;3.00
62778;PMS7003;48821;48.796;2.396;2023-03-13T04:59:56;5.00;4.67;3.00
62778;PMS7003;48821;48.796;2.396;2023-03-13T05:01:07;4.00;4.00;3.00
62778;PMS7003;48821;48.796;2.396;2023-03-13T05:02:18;7.67;5.00;4.00
62778;PMS7003;48821;48.796;2.396;2023-03-13T05:03:28;4.00;3.33;2.67
62778;PMS7003;48821;48.796;2.396;2023-03-13T05:04:39;6.67;5.00;4.67
62778;PMS7003;48821;48.796;2.396;2023-03-13T05:05:51;8.50;6.00;4.25
62778;PMS7003;48821;48.796;2.396;2023-03-13T05:07:01;6.00;5.00;5.00
62778;PMS7003;48821;48.796;2.396;2023-03-13T05:08:12;6.00;6.00;4.00
62778;PMS7003;48821;48.796;2.396;2023-03-13T05:09:23;8.00;6.00;4.00
62778;PMS7003;48821;48.796;2.396;2023-03-13T05:10:34;5.33;5.33;4.33
62778;PMS7003;48821;48.796;2.396;2023-03-13T05:11:46;6.25;6.00;3.75
62778;PMS7003;48821;48.796;2.396;2023-03-13T05:12:56;5.67;5.33;4.00
62778;PMS7003;48821;48.796;2.396;2023-03-13T05:14:08;4.33;4.33;3.67
62778;PMS7003;48821;48.796;2.396;2023-03-13T05:15:20;7.67;4.33;3.33
62778;PMS7003;48821;48.796;2.396;2023-03-13T05:16:31;6.00;4.67;3.33
62778;PMS7003;48821;48.796;2.396;2023-03-13T05:17:42;7.00;5.00;3.67
62778;PMS7003;48821;48.796;2.396;2023-03-13T05:18:53;7.33;5.33;4.00
62778;PMS7003;48821;48.796;2.396;2023-03-13T05:20:04;9.00;5.67;4.00
62778;PMS7003;48821;48.796;2.396;2023-03-13T05:21:19;6.50;6.50;4.33
62778;PMS7003;48821;48.796;2.396;2023-03-13T05:22:32;5.67;3.83;3.17
62778;PMS7003;48821;48.796;2.396;2023-03-13T05:23:43;5.33;5.00;4.00
62778;PMS7003;48821;48.796;2.396;2023-03-13T05:24:54;6.67;4.67;3.33
62778;PMS7003;48821;48.796;2.396;2023-03-13T05:26:04;9.67;3.33;2.67
62778;PMS7003;48821;48.796;2.396;2023-03-13T05:27:15;5.00;5.00;4.67
62778;PMS7003;48821;48.796;2.396;2023-03-13T05:28:26;4.33;4.00;3.00
62778;PMS7003;48821;48.796;2.396;2023-03-13T05:29:37;7.33;5.00;4.33
62778;PMS7003;48821;48.796;2.396;2023-03-13T05:30:48;6.67;5.00;4.00
62778;PMS7003;48821;48.796;2.396;2023-03-13T05:31:59;8.00;5.00;4.00
62778;PMS7003;48821;48.796;2.396;2023-03-13T05:33:10;6.00;5.67;4.00
62778;PMS7003;48821;48.796;2.396;2023-03-13T05:34:21;6.00;5.00;3.33
62778;PMS7003;48821;48.796;2.396;2023-03-13T05:35:34;4.83;4.00;3.50
62778;PMS7003;48821;48.796;2.396;2023-03-13T05:36:47;5.67;5.00;4.00
62778;PMS7003;48821;48.796;2.396;2023-03-13T05:38:01;5.00;5.00;3.83
62778;PMS7003;48821;48.796;2.396;2023-03-13T05:39:11;3.00;3.00;2.67
62778;PMS7003;48821;48.796;2.396;2023-03-13T05:40:22;9.00;4.00;4.00
62778;PMS7003;48821;48.796;2.396;2023-03-13T05:41:33;3.00;3.00;2.67
62778;PMS7003;48821;48.796;2.396;2023-03-13T05:42:44;5.67;5.00;4.00
62778;PMS7003;48821;48.796;2.396;2023-03-13T05:43:55;5.67;5.67;4.00
62778;PMS7003;48821;48.796;2.396;2023-03-13T05:45:06;6.00;5.33;4.00
62778;PMS7003;48821;48.796;2.396;2023-03-13T05:46:21;8.83;5.17;4.33
62778;PMS7003;48821;48.796;2.396;2023-03-13T05:47:31;7.00;5.00;4.33
62778;PMS7003;48821;48.796;2.396;2023-03-13T05:48:42;5.00;4.33;3.67
62778;PMS7003;48821;48.796;2.396;2023-03-13T05:49:57;7.83;6.67;4.17
62778;PMS7003;48821;48.796;2.396;2023-03-13T05:51:07;7.00;4.00;3.33
62778;PMS7003;48821;48.796;2.396;2023-03-13T05:52:18;4.00;4.00;3.00
62778;PMS7003;48821;48.796;2.396;2023-03-13T05:53:31;6.00;5.67;3.67
62778;PMS7003;48821;48.796;2.396;2023-03-13T05:54:42;7.00;3.00;3.00
62778;PMS7003;48821;48.796;2.396;2023-03-13T05:55:53;7.00;3.00;2.67
62778;PMS7003;48821;48.796;2.396;2023-03-13T05:57:05;7.25;6.00;4.25
62778;PMS7003;48821;48.796;2.396;2023-03-13T05:58:18;8.17;5.17;4.50
62778;PMS7003;48821;48.796;2.396;2023-03-13T05:59:28;5.33;4.33;4.00
62778;PMS7003;48821;48.796;2.396;2023-03-13T06:00:39;6.00;5.00;4.00
62778;PMS7003;48821;48.796;2.396;2023-03-13T06:01:52;6.80;4.20;2.00
62778;PMS7003;48821;48.796;2.396;2023-03-13T06:03:05;4.83;4.33;3.17
62778;PMS7003;48821;48.796;2.396;2023-03-13T06:04:18;8.00;6.00;4.33
62778;PMS7003;48821;48.796;2.396;2023-03-13T06:05:31;4.33;4.17;3.33
62778;PMS7003;48821;48.796;2.396;2023-03-13T06:06:45;7.00;6.00;4.33
62778;PMS7003;48821;48.796;2.396;2023-03-13T06:07:55;7.67;5.00;4.00
62778;PMS7003;48821;48.796;2.396;2023-03-13T06:09:06;4.67;4.00;4.00
62778;PMS7003;48821;48.796;2.396;2023-03-13T06:10:18;7.50;5.75;4.25
62778;PMS7003;48821;48.796;2.396;2023-03-13T06:11:29;8.00;6.00;5.33
62778;PMS7003;48821;48.796;2.396;2023-03-13T06:12:39;6.00;6.00;4.33
62778;PMS7003;48821;48.796;2.396;2023-03-13T06:13:51;9.00;8.00;5.00
62778;PMS7003;48821;48.796;2.396;2023-03-13T06:15:03;8.25;6.50;5.00
62778;PMS7003;48821;48.796;2.396;2023-03-13T06:16:18;7.50;7.00;5.33
62778;PMS7003;48821;48.796;2.396;2023-03-13T06:17:28;8.00;6.00;5.00
62778;PMS7003;48821;48.796;2.396;2023-03-13T06:18:39;6.33;5.00;4.00
62778;PMS7003;48821;48.796;2.396;2023-03-13T06:19:51;8.00;6.00;5.00
62778;PMS7003;48821;48.796;2.396;2023-03-13T06:21:02;8.00;6.00;5.00
62778;PMS7003;48821;48.796;2.396;2023-03-13T06:22:13;8.33;4.00;3.00
62778;PMS7003;48821;48.796;2.396;2023-03-13T06:23:28;3.33;1.00;0.67
62778;PMS7003;48821;48.796;2.396;2023-03-13T06:24:41;8.67;6.00;5.00
62778;PMS7003;48821;48.796;2.396;2023-03-13T06:25:56;4.67;4.67;4.17
62778;PMS7003;48821;48.796;2.396;2023-03-13T06:27:06;5.00;5.00;3.00
62778;PMS7003;48821;48.796;2.396;2023-03-13T06:28:19;7.20;3.60;3.00
62778;PMS7003;48821;48.796;2.396;2023-03-13T06:29:30;5.67;5.00;3.00
62778;PMS7003;48821;48.796;2.396;2023-03-13T06:30:41;3.67;3.67;3.00
62778;PMS7003;48821;48.796;2.396;2023-03-13T06:31:52;7.33;5.33;3.67
62778;PMS7003;48821;48.796;2.396;2023-03-13T06:33:03;4.50;4.25;3.25
62778;PMS7003;48821;48.796;2.396;2023-03-13T06:34:17;5.17;4.33;3.50
62778;PMS7003;48821;48.796;2.396;2023-03-13T06:35:27;8.00;4.67;4.00
62778;PMS7003;48821;48.796;2.396;2023-03-13T06:36:38;6.00;4.00;3.00
62778;PMS7003;48821;48.796;2.396;2023-03-13T06:37:49;5.67;5.67;4.00
62778;PMS7003;48821;48.796;2.396;2023-03-13T06:39:00;4.33;4.33;3.67
62778;PMS7003;48821;48.796;2.396;2023-03-13T06:40:11;5.33;5.33;3.33
62778;PMS7003;48821;48.796;2.396;2023-03-13T06:41:22;6.00;6.00;4.00
62778;PMS7003;48821;48.796;2.396;2023-03-13T06:42:36;6.00;5.00;3.33
62778;PMS7003;48821;48.796;2.396;2023-03-13T06:43:49;5.00;5.00;4.00
62778;PMS7003;48821;48.796;2.396;2023-03-13T06:44:59;7.67;5.00;4.00
62778;PMS7003;48821;48.796;2.396;2023-03-13T06:46:15;5.33;5.33;4.00
62778;PMS7003;48821;48.796;2.396;2023-03-13T06:47:33;7.33;5.17;4.17
62778;PMS7003;48821;48.796;2.396;2023-03-13T06:48:43;6.33;6.00;3.00
62778;PMS7003;48821;48.796;2.396;2023-03-13T06:49:55;5.00;3.67;3.00
62778;PMS7003;48821;48.796;2.396;2023-03-13T06:51:10;4.00;3.00;3.00
62778;PMS7003;48821;48.796;2.396;2023-03-13T06:52:20;5.00;5.00;4.00
62778;PMS7003;48821;48.796;2.396;2023-03-13T06:53:31;4.00;4.00;3.67
62778;PMS7003;48821;48.796;2.396;2023-03-13T06:54:42;7.00;4.00;3.33
62778;PMS7003;48821;48.796;2.396;2023-03-13T06:55:53;9.33;5.00;4.00
62778;PMS7003;48821;48.796;2.396;2023-03-13T06:57:04;5.33;4.67;3.00
62778;PMS7003;48821;48.796;2.396;2023-03-13T06:58:16;4.00;4.00;3.25
62778;PMS7003;48821;48.796;2.396;2023-03-13T06:59:27;5.67;4.33;3.00
62778;PMS7003;48821;48.796;2.396;2023-03-13T07:00:38;4.67;4.67;3.33
62778;PMS7003;48821;48.796;2.396;2023-03-13T07:01:49;4.00;4.00;3.00
62778;PMS7003;48821;48.796;2.396;2023-03-13T07:03:00;7.67;4.33;4.00
62778;PMS7003;48821;48.796;2.396;2023-03-13T07:04:11;5.00;5.00;4.00
62778;PMS7003;48821;48.796;2.396;2023-03-13T07:05:22;8.33;6.00;4.00
62778;PMS7003;48821;48.796;2.396;2023-03-13T07:06:33;5.67;5.33;3.67
62778;PMS7003;48821;48.796;2.396;2023-03-13T07:07:44;5.33;4.67;3.33
62778;PMS7003;48821;48.796;2.396;2023-03-13T07:08:55;5.67;3.00;2.33
62778;PMS7003;48821;48.796;2.396;2023-03-13T07:10:05;8.00;5.00;4.00
62778;PMS7003;48821;48.796;2.396;2023-03-13T07:11:16;5.67;4.00;3.00
62778;PMS7003;48821;48.796;2.396;2023-03-13T07:12:28;6.25;3.75;2.75
62778;PMS7003;48821;48.796;2.396;2023-03-13T07:13:41;3.00;3.00;2.83
62778;PMS7003;48821;48.796;2.396;2023-03-13T07:14:52;6.00;4.67;3.00
62778;PMS7003;48821;48.796;2.396;2023-03-13T07:16:04;4.67;4.00;3.00